Weather History for Okmulgee, OK

Change the Weather History Date:

Tuesday, February 5, 2013

  Actual Average (KMKO) Record (KMKO)
Temperature  
Mean Temperature 50 °F -  
Max Temperature 68 °F 49 °F 66 °F (1999)
Min Temperature 31 °F 29 °F 10 °F (2011)
Degree Days  
Heating Degree Days 16    
Moisture  
Dew Point 36 °F    
Average Humidity 69    
Maximum Humidity 96    
Minimum Humidity 25    
Precipitation  
Precipitation 0.00 in - - ()
Sea Level Pressure  
Sea Level Pressure 29.99 in    
Wind  
Wind Speed 4 mph (NE)    
Max Wind Speed 12 mph    
Max Gust Speed -    
Visibility 10 miles    
Events      
Averages and records for this station are not official NWS values.
T = Trace of Precipitation, MM = Missing Value Source: NWS Daily Summary

Daily Weather History Graph

Daily Weather History Graph

Search for Another Location

Airport:

Trip Planner

Search our weather history database for the weather conditions in past years. The results will help you decide how hot, cold, wet, or windy it might be!

Date:

Astronomy

Feb. 05, 2013 Rise Set
Actual Time 7:20 AM CST 5:55 PM CST
Civil Twilight 6:53 AM CST 6:22 PM CST
Nautical Twilight 6:23 AM CST 6:52 PM CST
Astronomical Twilight 5:53 AM CST 7:22 PM CST
Moon 2:59 AM CST (2/5) 1:18 PM CST (2/5)
Length of Visible Light 11h 28m
Length of Day
10h 35m
Waning Crescent, 26% of the Moon is Illuminated
Feb 5
Waning Crescent
Feb 10
New
Feb 17
First Quarter
Feb 25
Full
Mar 4
Last Quarter

Hourly Weather History & Observations

Time (CST) Temp. Windchill Dew Point Humidity Pressure Visibility Wind Dir Wind Speed Gust Speed Precip Events Conditions
12:15 AM 42.6 °F 36.8 °F 32.9 °F 68% 29.94 in 10.0 mi North 10.4 mph - N/A   Clear
12:35 AM 42.8 °F 37.5 °F 32.9 °F 68% 29.94 in 10.0 mi NNE 9.2 mph - N/A   Clear
12:55 AM 42.1 °F 35.7 °F 32.9 °F 70% 29.94 in 10.0 mi North 11.5 mph - N/A   Clear
1:15 AM 41.9 °F 36.3 °F 32.9 °F 70% 29.94 in 10.0 mi NNE 9.2 mph - N/A   Clear
1:35 AM 41.2 °F 35.5 °F 32.9 °F 72% 29.93 in 10.0 mi NNE 9.2 mph - N/A   Clear
1:55 AM 40.5 °F 35.8 °F 32.4 °F 73% 29.94 in 10.0 mi NNE 6.9 mph - N/A   Clear
2:15 AM 39.2 °F 34.2 °F 32.4 °F 76% 29.93 in 10.0 mi NNE 6.9 mph - N/A   Clear
2:35 AM 38.7 °F 33.6 °F 32.2 °F 78% 29.93 in 10.0 mi NNE 6.9 mph - N/A   Clear
2:55 AM 37.8 °F 34.2 °F 32.0 °F 80% 29.93 in 10.0 mi NE 4.6 mph - N/A   Clear
3:15 AM 37.4 °F 34.9 °F 31.8 °F 80% 29.93 in 10.0 mi NNE 3.5 mph - N/A   Clear
3:35 AM 37.6 °F 35.1 °F 31.8 °F 80% 29.93 in 10.0 mi NE 3.5 mph - N/A   Clear
3:55 AM 34.7 °F - 31.1 °F 87% 29.92 in 10.0 mi Calm Calm - N/A   Clear
4:15 AM 34.0 °F - 31.1 °F 89% 29.92 in 10.0 mi Calm Calm - N/A   Clear
4:35 AM 33.1 °F - 30.2 °F 89% 29.93 in 10.0 mi Calm Calm - N/A   Clear
4:55 AM 33.3 °F - 30.7 °F 90% 29.94 in 10.0 mi Calm Calm - N/A   Clear
5:15 AM 33.6 °F - 30.6 °F 89% 29.94 in 10.0 mi Calm Calm - N/A   Clear
5:35 AM 32.4 °F - 30.6 °F 93% 29.94 in 10.0 mi Calm Calm - N/A   Clear
5:55 AM 31.8 °F - 29.3 °F 90% 29.95 in 10.0 mi Calm Calm - N/A   Clear
6:15 AM 31.8 °F - 29.8 °F 92% 29.96 in 10.0 mi Calm Calm - N/A   Clear
6:35 AM 31.5 °F - 29.3 °F 92% 29.96 in 10.0 mi Calm Calm - N/A   Clear
6:55 AM 31.1 °F - 29.3 °F 93% 29.96 in 10.0 mi Calm Calm - N/A   Clear
7:15 AM 31.1 °F - 29.3 °F 93% 29.98 in 10.0 mi Calm Calm - N/A   Mostly Cloudy
7:35 AM 31.6 °F - 30.2 °F 94% 29.99 in 10.0 mi Calm Calm - N/A   Mostly Cloudy
7:55 AM 32.0 °F - 30.9 °F 96% 30.00 in 10.0 mi Calm Calm - N/A   Overcast
8:15 AM 33.8 °F - 32.0 °F 93% 30.00 in 10.0 mi Calm Calm - N/A   Overcast
8:35 AM 35.2 °F - 32.2 °F 89% 30.01 in 10.0 mi Calm Calm - N/A   Overcast
8:55 AM 38.3 °F - 33.6 °F 83% 30.01 in 10.0 mi Calm Calm - N/A   Scattered Clouds
9:15 AM 40.3 °F - 34.3 °F 79% 30.01 in 10.0 mi Calm Calm - N/A   Scattered Clouds
9:35 AM 43.0 °F 41.3 °F 36.5 °F 78% 30.02 in 10.0 mi South 3.5 mph - N/A   Scattered Clouds
9:55 AM 44.6 °F 42.2 °F 37.4 °F 76% 30.02 in 10.0 mi South 4.6 mph - N/A   Clear
10:15 AM 46.9 °F - 38.7 °F 73% 30.03 in 10.0 mi Calm Calm - N/A   Clear
10:35 AM 48.7 °F - 39.4 °F 70% 30.04 in 10.0 mi Calm Calm - N/A   Clear
10:55 AM 51.1 °F - 39.6 °F 65% 30.03 in 10.0 mi Calm Calm - N/A   Clear
11:15 AM 54.1 °F - 39.2 °F 57% 30.04 in 10.0 mi WSW 3.5 mph - N/A   Clear
11:35 AM 56.5 °F - 40.6 °F 55% 30.03 in 10.0 mi Calm Calm - N/A   Clear
11:55 AM 58.3 °F - 41.7 °F 54% 30.03 in 10.0 mi Calm Calm - N/A   Clear
12:15 PM 59.5 °F - 42.6 °F 54% 30.02 in 10.0 mi Calm Calm - N/A   Clear
12:35 PM 61.0 °F - 42.6 °F 51% 30.01 in 10.0 mi Calm Calm - N/A   Clear
12:55 PM 62.6 °F - 42.4 °F 48% 30.00 in 10.0 mi South 3.5 mph - N/A   Clear
1:15 PM 63.9 °F - 42.1 °F 45% 30.00 in 10.0 mi Calm Calm - N/A   Clear
1:35 PM 65.7 °F - 40.8 °F 40% 29.99 in 10.0 mi WSW 3.5 mph - N/A   Clear
1:55 PM 65.7 °F - 39.6 °F 38% 29.98 in 10.0 mi SW 4.6 mph - N/A   Clear
2:15 PM 66.9 °F - 35.1 °F 31% 29.98 in 10.0 mi Calm Calm - N/A   Clear
2:35 PM 67.6 °F - 36.1 °F 31% 29.98 in 10.0 mi SW 5.8 mph - N/A   Clear
2:55 PM 66.7 °F - 39.2 °F 36% 29.98 in 10.0 mi NE 5.8 mph - N/A   Clear
3:15 PM 67.8 °F - 34.3 °F 29% 29.98 in 10.0 mi East 3.5 mph - N/A   Clear
3:35 PM 67.3 °F - 34.5 °F 30% 29.97 in 10.0 mi North 4.6 mph - N/A   Clear
3:55 PM 68.0 °F - 31.1 °F 25% 29.97 in 10.0 mi North 3.5 mph - N/A   Clear
4:15 PM 67.3 °F - 31.1 °F 26% 29.98 in 10.0 mi Calm Calm - N/A   Clear
4:35 PM 67.3 °F - 33.3 °F 28% 29.98 in 10.0 mi Calm Calm - N/A   Clear
5:15 PM 66.2 °F - 31.6 °F 28% 29.98 in 10.0 mi East 4.6 mph - N/A   Clear
5:35 PM 64.0 °F - 31.3 °F 29% 29.98 in 10.0 mi ENE 4.6 mph - N/A   Clear
5:55 PM 61.3 °F - 30.9 °F 32% 29.98 in 10.0 mi ENE 5.8 mph - N/A   Clear
6:15 PM 56.8 °F - 40.8 °F 55% 29.98 in 10.0 mi East 6.9 mph - N/A   Clear
6:35 PM 53.6 °F - 43.3 °F 68% 29.99 in 10.0 mi East 5.8 mph - N/A   Clear
6:55 PM 53.4 °F - 43.9 °F 70% 29.99 in 10.0 mi East 3.5 mph - N/A   Clear
7:15 PM 54.7 °F - 43.9 °F 67% 30.00 in 10.0 mi Calm Calm - N/A   Clear
8:15 PM 48.4 °F - 42.8 °F 81% 30.02 in 10.0 mi NNE 6.9 mph - N/A   Clear
8:35 PM 48.6 °F - 42.8 °F 80% 30.02 in 10.0 mi Calm Calm - N/A   Clear
8:55 PM 48.0 °F - 43.0 °F 83% 30.02 in 10.0 mi Calm Calm - N/A   Clear
9:15 PM 45.9 °F - 41.7 °F 85% 30.03 in 10.0 mi Calm Calm - N/A   Clear
9:35 PM 45.0 °F - 41.0 °F 86% 30.03 in 10.0 mi Calm Calm - N/A   Clear
9:55 PM 44.4 °F 41.2 °F 40.8 °F 87% 30.04 in 10.0 mi NNE 5.8 mph - N/A   Clear
10:15 PM 45.7 °F - 41.2 °F 84% 30.04 in 10.0 mi Calm Calm - N/A   Clear
10:35 PM 44.2 °F 41.8 °F 40.3 °F 86% 30.04 in 10.0 mi NE 4.6 mph - N/A   Clear
10:55 PM 42.6 °F - 39.4 °F 88% 30.04 in 10.0 mi Calm Calm - N/A   Clear
11:15 PM 44.1 °F - 39.9 °F 85% 30.04 in 10.0 mi Calm Calm - N/A   Clear
11:35 PM 44.4 °F - 39.2 °F 82% 30.04 in 10.0 mi Calm Calm - N/A   Clear
11:55 PM 41.0 °F - 38.1 °F 89% 30.04 in 10.0 mi Calm Calm - N/A   Clear